createdAt,value
2022-12-16T00:01:41.763Z,54.27
2022-12-16T00:04:09.624Z,54.93
2022-12-16T00:06:37.643Z,58.57
2022-12-16T00:09:09.247Z,51.10
2022-12-16T00:11:37.261Z,61.60
2022-12-16T00:14:05.600Z,53.73
2022-12-16T00:16:33.451Z,65.20
2022-12-16T00:19:01.675Z,67.87
2022-12-16T00:21:29.758Z,66.27
2022-12-16T00:23:58.572Z,74.50
2022-12-16T00:26:29.737Z,65.73
2022-12-16T00:28:57.772Z,64.93
2022-12-16T00:31:27.762Z,60.53
2022-12-16T00:33:57.674Z,63.93
2022-12-16T00:36:25.492Z,63.47
2022-12-16T00:38:53.940Z,59.67
2022-12-16T00:41:25.480Z,60.73
2022-12-16T00:43:54.682Z,60.73
2022-12-16T00:46:23.031Z,56.63
2022-12-16T00:48:53.700Z,58.60
2022-12-16T00:51:23.507Z,56.27
2022-12-16T00:53:51.757Z,47.70
2022-12-16T00:56:20.244Z,48.93
2022-12-16T00:58:48.518Z,46.50
2022-12-16T01:01:17.841Z,48.37
2022-12-16T01:03:46.147Z,50.33
2022-12-16T01:06:16.748Z,54.87
2022-12-16T01:08:48.336Z,47.03
2022-12-16T01:11:17.171Z,48.23
2022-12-16T01:13:45.657Z,48.13
2022-12-16T01:16:15.522Z,50.37
2022-12-16T01:18:45.070Z,41.77
2022-12-16T01:21:16.291Z,41.73
2022-12-16T01:23:48.506Z,40.20
2022-12-16T01:26:18.919Z,41.70
2022-12-16T01:28:49.170Z,38.93
2022-12-16T01:31:18.403Z,49.63
2022-12-16T01:33:50.943Z,50.33
2022-12-16T01:36:20.073Z,53.20
2022-12-16T01:38:48.433Z,50.80
2022-12-16T01:41:18.706Z,49.50
2022-12-16T01:43:47.396Z,54.93
2022-12-16T01:46:19.973Z,57.90
2022-12-16T01:48:53.425Z,63.00
2022-12-16T01:51:28.032Z,65.33
2022-12-16T01:53:59.000Z,60.27
2022-12-16T01:56:31.488Z,82.50
2022-12-16T01:59:00.646Z,82.20
2022-12-16T02:01:29.063Z,82.53
2022-12-16T02:04:02.498Z,92.03
2022-12-16T02:06:31.431Z,83.27
2022-12-16T02:09:03.989Z,85.00
2022-12-16T02:12:06.838Z,83.73
2022-12-16T02:14:52.055Z,79.27
2022-12-16T02:17:29.562Z,74.40
2022-12-16T02:20:30.976Z,71.47
2022-12-16T02:23:17.848Z,77.33
2022-12-16T02:26:10.289Z,85.80
2022-12-16T02:28:58.094Z,87.10
2022-12-16T02:31:35.039Z,83.97
2022-12-16T02:34:13.797Z,80.37
2022-12-16T02:36:50.445Z,80.93
2022-12-16T02:39:23.122Z,77.37
2022-12-16T02:41:56.484Z,84.87
2022-12-16T02:44:33.713Z,69.70
2022-12-16T02:47:03.101Z,74.17
2022-12-16T02:49:47.014Z,81.37
2022-12-16T02:52:16.176Z,119.77
2022-12-16T02:54:45.007Z,103.93
2022-12-16T02:57:27.911Z,91.03
2022-12-16T03:00:04.300Z,100.43
2022-12-16T03:02:39.684Z,95.47
2022-12-16T03:05:14.235Z,87.97
2022-12-16T03:07:44.367Z,85.00
2022-12-16T03:10:18.512Z,87.67
2022-12-16T03:12:47.595Z,88.77
2022-12-16T03:15:18.593Z,94.60
2022-12-16T03:17:52.535Z,89.70
2022-12-16T03:20:25.928Z,86.33
2022-12-16T03:22:58.622Z,87.17
2022-12-16T03:25:29.295Z,89.57
2022-12-16T03:28:05.572Z,93.50
2022-12-16T03:30:37.604Z,85.03
2022-12-16T03:33:13.233Z,75.80
2022-12-16T03:35:45.966Z,79.03
2022-12-16T03:38:15.541Z,87.00
2022-12-16T03:40:45.150Z,92.50
2022-12-16T03:43:15.240Z,96.03
2022-12-16T03:45:46.633Z,94.70
2022-12-16T03:48:17.375Z,86.20
2022-12-16T03:50:45.559Z,95.33
2022-12-16T03:53:13.457Z,96.53
2022-12-16T03:55:41.294Z,96.60
2022-12-16T03:58:09.274Z,91.60
2022-12-16T04:00:37.231Z,103.60
2022-12-16T04:03:06.372Z,83.50
2022-12-16T04:05:35.692Z,89.30
2022-12-16T04:08:04.093Z,101.03
2022-12-16T04:10:49.773Z,104.23
2022-12-16T04:13:35.574Z,112.70
2022-12-16T04:16:21.062Z,107.40
2022-12-16T04:19:07.015Z,108.97
2022-12-16T04:21:53.452Z,108.07
2022-12-16T04:24:31.350Z,108.43
2022-12-16T04:27:16.440Z,112.27
2022-12-16T04:29:58.274Z,88.13
2022-12-16T04:32:26.798Z,79.50
2022-12-16T04:34:53.945Z,77.07
2022-12-16T04:37:40.723Z,95.67
2022-12-16T04:40:27.018Z,81.43
2022-12-16T04:43:12.276Z,80.43
2022-12-16T04:45:58.159Z,73.80
2022-12-16T04:48:43.614Z,68.03
2022-12-16T04:51:29.001Z,66.60
2022-12-16T04:54:24.106Z,68.47
2022-12-16T04:57:09.588Z,62.10
2022-12-16T04:59:54.961Z,65.57
2022-12-16T05:02:40.420Z,65.93
2022-12-16T05:05:29.769Z,75.20
2022-12-16T05:08:15.249Z,79.97
2022-12-16T05:11:02.816Z,80.00
2022-12-16T05:13:48.145Z,83.77
2022-12-16T05:16:45.262Z,80.23
2022-12-16T05:19:31.811Z,91.23
2022-12-16T05:22:18.098Z,89.17
2022-12-16T05:25:03.380Z,92.53
2022-12-16T05:27:50.111Z,85.80
2022-12-16T05:30:35.814Z,86.43
2022-12-16T05:33:21.281Z,87.43
2022-12-16T05:36:06.462Z,87.43
2022-12-16T05:38:52.248Z,76.93
2022-12-16T05:41:37.511Z,73.93
2022-12-16T05:44:24.861Z,64.83
2022-12-16T05:47:10.454Z,74.43
2022-12-16T05:49:56.132Z,77.47
2022-12-16T05:52:41.200Z,77.20
2022-12-16T05:55:33.589Z,67.87
2022-12-16T05:58:19.673Z,66.27
2022-12-16T06:01:06.298Z,61.47
2022-12-16T06:03:51.664Z,65.20
2022-12-16T06:06:36.201Z,56.53
2022-12-16T06:09:22.165Z,57.47
2022-12-16T06:12:16.972Z,65.53
2022-12-16T06:15:02.343Z,60.20
2022-12-16T06:17:49.180Z,71.23
2022-12-16T06:20:34.491Z,66.40
2022-12-16T06:23:24.097Z,61.77
2022-12-16T06:26:10.892Z,80.50
2022-12-16T06:28:56.077Z,76.40
2022-12-16T06:31:41.436Z,63.77
2022-12-16T06:34:27.953Z,75.30
2022-12-16T06:37:13.090Z,68.67
2022-12-16T06:39:58.847Z,64.03
2022-12-16T06:42:44.508Z,65.37
2022-12-16T06:45:34.529Z,63.87
2022-12-16T06:48:20.207Z,57.07
2022-12-16T06:51:07.077Z,55.87
2022-12-16T06:53:52.179Z,63.40
2022-12-16T06:56:37.513Z,55.93
2022-12-16T06:59:23.200Z,58.23
2022-12-16T07:02:08.578Z,69.27
2022-12-16T07:04:54.149Z,71.93
2022-12-16T07:07:40.957Z,64.23
2022-12-16T07:10:27.266Z,58.83
2022-12-16T07:13:16.225Z,65.70
2022-12-16T07:16:01.599Z,71.60
2022-12-16T07:18:47.443Z,70.17
2022-12-16T07:21:32.629Z,76.97
2022-12-16T07:24:19.849Z,70.07
2022-12-16T07:27:05.416Z,69.30
2022-12-16T07:29:50.491Z,68.40
2022-12-16T07:32:37.825Z,69.27
2022-12-16T07:35:24.097Z,64.37
2022-12-16T07:38:09.367Z,60.87
2022-12-16T07:40:57.408Z,61.97
2022-12-16T07:43:42.955Z,68.17
2022-12-16T07:46:28.336Z,61.50
2022-12-16T07:49:13.633Z,70.13
2022-12-16T07:51:58.883Z,68.70
2022-12-16T07:54:44.371Z,68.53
2022-12-16T07:57:31.470Z,68.53
2022-12-16T08:00:28.329Z,71.67
2022-12-16T08:03:13.765Z,82.93
2022-12-16T08:05:59.624Z,82.87
2022-12-16T08:08:45.115Z,86.00
2022-12-16T08:11:30.925Z,86.20
2022-12-16T08:14:17.369Z,87.07
2022-12-16T08:17:03.417Z,82.27
2022-12-16T08:19:48.514Z,81.33
2022-12-16T08:22:33.771Z,72.60
2022-12-16T08:25:19.136Z,86.27
2022-12-16T08:28:05.114Z,91.73
2022-12-16T08:30:53.976Z,87.60
2022-12-16T08:33:39.909Z,85.57
2022-12-16T08:36:25.717Z,74.13
2022-12-16T08:39:12.181Z,73.80
2022-12-16T08:41:57.450Z,86.07
2022-12-16T08:44:43.503Z,83.03
2022-12-16T08:47:30.130Z,67.33
2022-12-16T08:50:15.945Z,110.87
2022-12-16T08:53:01.767Z,119.27
2022-12-16T08:55:47.189Z,96.90
2022-12-16T08:58:32.481Z,94.03
2022-12-16T09:01:18.061Z,97.67
2022-12-16T09:04:05.093Z,94.97
2022-12-16T09:06:51.185Z,77.13
2022-12-16T09:09:36.753Z,134.80
2022-12-16T09:12:24.064Z,77.33
2022-12-16T09:15:09.317Z,76.87
2022-12-16T09:17:54.805Z,74.83
2022-12-16T09:20:41.447Z,80.13
2022-12-16T09:23:27.158Z,67.43
2022-12-16T09:26:12.449Z,59.60
2022-12-16T09:28:57.799Z,99.57
2022-12-16T09:31:44.316Z,138.87
2022-12-16T09:34:29.530Z,86.60
2022-12-16T09:37:27.590Z,79.63
2022-12-16T09:40:13.090Z,68.23
2022-12-16T09:43:09.418Z,68.23
2022-12-16T09:46:08.089Z,69.00
2022-12-16T09:49:04.979Z,75.93
2022-12-16T09:51:53.345Z,70.40
2022-12-16T09:54:45.621Z,71.20
2022-12-16T09:57:33.058Z,79.10
2022-12-16T10:00:21.288Z,86.53
2022-12-16T10:03:08.828Z,85.83
2022-12-16T10:06:00.271Z,79.13
2022-12-16T10:08:56.706Z,76.00
2022-12-16T10:11:59.557Z,78.67
2022-12-16T10:14:54.312Z,78.97
2022-12-16T10:17:44.389Z,89.97
2022-12-16T10:20:39.551Z,81.07
2022-12-16T10:23:33.045Z,82.93
2022-12-16T10:26:24.262Z,139.53
2022-12-16T10:29:21.914Z,269.77
2022-12-16T10:32:07.619Z,129.33
2022-12-16T10:34:56.899Z,102.27
2022-12-16T10:37:50.808Z,101.87
2022-12-16T10:40:49.598Z,96.03
2022-12-16T10:43:39.374Z,94.67
2022-12-16T10:46:35.148Z,105.40
2022-12-16T10:49:21.757Z,103.67
2022-12-16T10:52:08.319Z,103.33
2022-12-16T10:54:58.984Z,103.00
2022-12-16T10:57:56.039Z,85.57
2022-12-16T11:01:00.157Z,92.70
2022-12-16T11:03:49.194Z,98.20
2022-12-16T11:06:38.586Z,96.93
2022-12-16T11:09:38.866Z,100.60
2022-12-16T11:12:40.114Z,93.87
2022-12-16T11:15:47.739Z,90.23
2022-12-16T11:18:35.184Z,93.97
2022-12-16T11:21:40.681Z,82.30
2022-12-16T11:24:30.827Z,82.97
2022-12-16T11:27:18.648Z,84.83
2022-12-16T11:30:11.634Z,100.37
2022-12-16T11:33:00.296Z,98.50
2022-12-16T11:35:50.179Z,81.93
2022-12-16T11:38:50.465Z,74.03
2022-12-16T11:41:44.881Z,71.67
2022-12-16T11:44:39.355Z,67.50
2022-12-16T11:47:34.572Z,63.20
2022-12-16T11:50:21.675Z,85.43
2022-12-16T11:53:13.647Z,91.07
2022-12-16T11:56:10.855Z,128.60
2022-12-16T11:59:04.567Z,115.30
2022-12-16T12:01:55.487Z,96.90
2022-12-16T12:04:41.699Z,80.13
2022-12-16T12:07:48.025Z,98.23
2022-12-16T12:10:49.580Z,102.00
2022-12-16T12:13:48.298Z,112.37
2022-12-16T12:16:40.290Z,113.63
2022-12-16T12:19:31.918Z,102.60
2022-12-16T12:22:21.433Z,110.10
2022-12-16T12:25:14.383Z,118.20
2022-12-16T12:28:09.084Z,116.93
2022-12-16T12:31:02.525Z,115.33
2022-12-16T12:33:56.713Z,119.77
2022-12-16T12:36:53.769Z,129.10
2022-12-16T12:39:47.478Z,124.07
2022-12-16T12:42:49.517Z,121.73
2022-12-16T12:45:59.637Z,119.47
2022-12-16T12:48:56.091Z,144.63
2022-12-16T12:51:49.389Z,154.87
2022-12-16T12:54:43.384Z,153.67
2022-12-16T12:57:34.030Z,138.13
2022-12-16T13:00:23.513Z,134.63
2022-12-16T13:03:18.891Z,127.20
2022-12-16T13:06:06.918Z,135.00
2022-12-16T13:09:02.072Z,136.47
2022-12-16T13:11:48.158Z,134.23
2022-12-16T13:15:11.349Z,143.23
2022-12-16T13:18:30.250Z,150.87
2022-12-16T13:21:17.495Z,147.13
2022-12-16T13:24:03.797Z,150.10
2022-12-16T13:26:51.519Z,149.73
2022-12-16T13:29:39.818Z,149.60
2022-12-16T13:32:36.766Z,142.07
2022-12-16T13:35:33.369Z,134.90
2022-12-16T13:38:22.652Z,146.20
2022-12-16T13:41:13.103Z,138.93
2022-12-16T13:44:07.215Z,141.20
2022-12-16T13:47:07.047Z,132.87
2022-12-16T13:50:05.315Z,138.60
2022-12-16T13:53:02.154Z,135.50
2022-12-16T13:55:50.581Z,132.30
2022-12-16T13:58:48.077Z,138.27
2022-12-16T14:01:38.446Z,130.90
2022-12-16T14:04:28.815Z,145.97
2022-12-16T14:07:24.367Z,130.80
2022-12-16T14:10:10.528Z,109.17
2022-12-16T14:13:19.439Z,104.67
2022-12-16T14:16:16.829Z,107.70
2022-12-16T14:19:16.305Z,118.77
2022-12-16T14:22:09.958Z,91.93
2022-12-16T14:24:57.650Z,75.53
2022-12-16T14:27:43.516Z,71.00
2022-12-16T14:30:37.659Z,68.60
2022-12-16T14:33:45.815Z,67.93
2022-12-16T14:36:41.946Z,67.47
2022-12-16T14:39:29.420Z,65.93
2022-12-16T14:42:14.908Z,61.50
2022-12-16T14:45:03.804Z,54.13
2022-12-16T14:47:56.409Z,42.30
2022-12-16T14:50:45.377Z,39.00
2022-12-16T14:53:37.149Z,42.63
2022-12-16T14:56:34.857Z,52.97
2022-12-16T14:59:28.273Z,53.23
2022-12-16T15:02:16.764Z,55.53
2022-12-16T15:05:09.592Z,59.00
2022-12-16T15:07:56.336Z,52.63
2022-12-16T15:10:45.701Z,35.60
2022-12-16T15:13:36.427Z,27.03
2022-12-16T15:16:24.384Z,25.67
2022-12-16T15:19:17.971Z,26.83
2022-12-16T15:22:06.364Z,27.30
2022-12-16T15:24:56.262Z,32.47
2022-12-16T15:27:44.017Z,23.70
2022-12-16T15:30:53.972Z,26.90
2022-12-16T15:33:41.727Z,23.50
2022-12-16T15:36:40.577Z,17.70
2022-12-16T15:39:36.990Z,18.23
2022-12-16T15:42:23.337Z,18.27
2022-12-16T15:45:10.858Z,21.13
2022-12-16T15:47:57.221Z,18.30
2022-12-16T15:50:45.016Z,16.47
2022-12-16T15:53:36.400Z,17.17
2022-12-16T15:56:23.712Z,39.57
2022-12-16T15:59:08.202Z,33.97
2022-12-16T16:02:04.515Z,33.97
2022-12-16T16:05:04.826Z,29.40
2022-12-16T16:07:50.185Z,30.40
2022-12-16T16:10:38.460Z,28.67
2022-12-16T16:13:25.122Z,32.33
2022-12-16T16:16:10.661Z,26.10
2022-12-16T16:18:56.856Z,23.97
2022-12-16T16:21:42.793Z,37.73
2022-12-16T16:24:28.512Z,34.83
2022-12-16T16:27:13.903Z,36.23
2022-12-16T16:30:00.618Z,36.00
2022-12-16T16:32:45.813Z,40.83
2022-12-16T16:35:31.925Z,36.43
2022-12-16T16:38:18.748Z,47.87
2022-12-16T16:41:04.797Z,65.13
2022-12-16T16:43:50.066Z,52.40
2022-12-16T16:46:47.437Z,44.60
2022-12-16T16:49:42.149Z,34.03
2022-12-16T16:52:30.642Z,42.63
2022-12-16T16:55:15.953Z,54.13
2022-12-16T16:58:01.645Z,66.97
2022-12-16T17:00:46.934Z,65.50
2022-12-16T17:04:28.284Z,66.40
2022-12-16T17:07:15.018Z,80.07
2022-12-16T17:10:00.188Z,67.47
2022-12-16T17:12:48.457Z,77.67
2022-12-16T17:15:36.381Z,85.50
2022-12-16T17:18:23.155Z,88.73
2022-12-16T17:21:08.917Z,101.03
2022-12-16T17:23:55.432Z,100.23
2022-12-16T17:26:41.778Z,83.80
2022-12-16T17:29:36.302Z,85.87
2022-12-16T17:32:22.620Z,89.17
2022-12-16T17:35:07.888Z,77.67
2022-12-16T17:37:53.697Z,71.87
2022-12-16T17:40:40.951Z,63.47
2022-12-16T17:43:26.859Z,68.90
2022-12-16T17:46:16.701Z,79.30
2022-12-16T17:49:02.685Z,76.03
2022-12-16T17:51:47.968Z,74.17
2022-12-16T17:54:33.332Z,75.83
2022-12-16T17:57:20.110Z,68.93
2022-12-16T18:00:06.560Z,63.43
2022-12-16T18:02:52.167Z,63.07
2022-12-16T18:05:44.420Z,63.53
2022-12-16T18:08:30.464Z,68.67
2022-12-16T18:11:18.174Z,58.17
2022-12-16T18:14:05.431Z,60.33
2022-12-16T18:16:51.174Z,50.73
2022-12-16T18:19:36.635Z,48.33
2022-12-16T18:22:22.305Z,44.90
2022-12-16T18:25:08.035Z,44.70
2022-12-16T18:27:55.496Z,51.03
2022-12-16T18:30:42.042Z,42.17
2022-12-16T18:33:27.344Z,44.40
2022-12-16T18:36:12.591Z,44.57
2022-12-16T18:38:57.897Z,42.13
2022-12-16T18:41:43.168Z,43.10
2022-12-16T18:44:31.573Z,40.57
2022-12-16T18:47:18.246Z,43.50
2022-12-16T18:50:04.079Z,41.90
2022-12-16T18:52:50.079Z,64.07
2022-12-16T18:55:35.720Z,58.90
2022-12-16T18:58:49.742Z,57.03
2022-12-16T19:01:28.731Z,44.67
2022-12-16T19:04:15.945Z,37.83
2022-12-16T19:07:01.283Z,35.23
2022-12-16T19:09:46.634Z,43.03
2022-12-16T19:12:32.116Z,45.20
2022-12-16T19:15:17.545Z,56.73
2022-12-16T19:18:02.764Z,65.63
2022-12-16T19:20:49.251Z,63.37
2022-12-16T19:23:35.196Z,56.27
2022-12-16T19:26:21.358Z,53.33
2022-12-16T19:29:06.987Z,45.80
2022-12-16T19:31:52.197Z,46.67
2022-12-16T19:34:37.916Z,44.87
2022-12-16T19:37:24.732Z,44.40
2022-12-16T19:40:11.076Z,49.80
2022-12-16T19:42:56.390Z,45.00
2022-12-16T19:45:43.384Z,40.03
2022-12-16T19:48:28.594Z,42.57
2022-12-16T19:51:17.389Z,42.30
2022-12-16T19:54:04.720Z,44.83
2022-12-16T19:56:52.133Z,41.87
2022-12-16T19:59:37.936Z,42.87
2022-12-16T20:02:24.027Z,46.57
2022-12-16T20:05:11.015Z,42.60
2022-12-16T20:07:56.526Z,47.90
2022-12-16T20:10:43.397Z,45.43
2022-12-16T20:13:30.381Z,51.80
2022-12-16T20:16:20.479Z,48.70
2022-12-16T20:19:05.955Z,50.70
2022-12-16T20:21:55.086Z,63.13
2022-12-16T20:24:43.780Z,65.10
2022-12-16T20:27:30.991Z,70.57
2022-12-16T20:30:16.168Z,73.27
2022-12-16T20:33:01.654Z,71.33
2022-12-16T20:35:47.979Z,64.37
2022-12-16T20:38:33.260Z,53.40
2022-12-16T20:41:23.416Z,43.17
2022-12-16T20:44:10.389Z,61.23
2022-12-16T20:46:56.540Z,46.60
2022-12-16T20:49:43.146Z,50.77
2022-12-16T20:52:29.061Z,50.03
2022-12-16T20:55:14.485Z,55.30
2022-12-16T20:58:14.075Z,69.63
2022-12-16T21:01:01.021Z,57.10
2022-12-16T21:03:46.689Z,51.30
2022-12-16T21:06:34.418Z,47.70
2022-12-16T21:09:19.822Z,46.10
2022-12-16T21:12:05.270Z,43.23
2022-12-16T21:14:50.620Z,59.43
2022-12-16T21:17:39.224Z,46.83
2022-12-16T21:20:25.454Z,40.87
2022-12-16T21:23:17.378Z,41.40
2022-12-16T21:26:03.080Z,43.97
2022-12-16T21:28:49.176Z,41.47
2022-12-16T21:31:35.208Z,44.10
2022-12-16T21:34:23.303Z,47.47
2022-12-16T21:37:09.331Z,47.47
2022-12-16T21:39:54.625Z,47.93
2022-12-16T21:42:44.141Z,34.97
2022-12-16T21:45:30.449Z,40.97
2022-12-16T21:48:15.878Z,41.93
2022-12-16T21:51:08.863Z,34.80
2022-12-16T21:53:54.696Z,30.80
2022-12-16T21:56:44.246Z,31.97
2022-12-16T21:59:29.411Z,30.00
2022-12-16T22:02:14.826Z,33.93
2022-12-16T22:04:59.993Z,31.10
2022-12-16T22:07:49.112Z,33.50
2022-12-16T22:10:35.037Z,34.27
2022-12-16T22:13:20.433Z,33.03
2022-12-16T22:16:13.591Z,34.63
2022-12-16T22:18:59.609Z,29.77
2022-12-16T22:21:46.006Z,30.57
2022-12-16T22:24:32.576Z,27.30
2022-12-16T22:27:18.308Z,35.67
2022-12-16T22:30:03.884Z,29.77
2022-12-16T22:32:49.113Z,30.20
2022-12-16T22:35:34.722Z,31.50
2022-12-16T22:38:20.220Z,29.93
2022-12-16T22:41:13.769Z,32.77
2022-12-16T22:43:59.136Z,29.13
2022-12-16T22:46:44.529Z,39.50
2022-12-16T22:49:30.147Z,41.80
2022-12-16T22:52:15.561Z,33.90
2022-12-16T22:55:00.888Z,37.03
2022-12-16T22:57:56.881Z,32.60
2022-12-16T23:00:42.277Z,29.93
2022-12-16T23:03:34.012Z,31.30
2022-12-16T23:06:19.639Z,32.23
2022-12-16T23:09:04.938Z,36.23
2022-12-16T23:11:53.267Z,31.87
2022-12-16T23:14:43.822Z,37.53
2022-12-16T23:17:29.632Z,36.67
2022-12-16T23:20:14.860Z,33.10
2022-12-16T23:23:00.505Z,38.33
2022-12-16T23:32:00.595Z,30.33
2022-12-16T23:34:46.425Z,29.23
2022-12-16T23:37:32.271Z,32.53
2022-12-16T23:40:18.005Z,31.27
2022-12-16T23:43:18.407Z,31.07
2022-12-16T23:46:04.048Z,27.37
2022-12-16T23:48:50.858Z,29.80
2022-12-16T23:51:37.523Z,23.00
2022-12-16T23:54:23.379Z,25.50
2022-12-16T23:57:08.824Z,24.37
2022-12-16T23:59:54.540Z,23.13
